Time;durP1;ratioP1;P1;durP2;ratioP2;P2;SDS_P1;SDS_P2;PMS_P1;PMS_P2;Temp;Humidity;BMP_temperature;BMP_pressure;BME280_temperature;BME280_humidity;BME280_pressure;Samples;Min_cycle;Max_cycle;Signal;HPM_P1;HPM_P2
2023/03/16 00:00:26;;;;;;;1.15;0.70;;;;;;;;;;5043268;28;20396;-90
2023/03/16 00:02:52;;;;;;;1.17;0.65;;;;;;;;;;5038495;28;20403;-89
2023/03/16 00:05:18;;;;;;;1.92;0.75;;;;;;;;;;5037571;28;20408;-92
2023/03/16 00:07:44;;;;;;;1.90;1.05;;;;;;;;;;5038755;28;20457;-93
2023/03/16 00:10:11;;;;;;;3.13;1.23;;;;;;;;;;5036812;28;20031;-91
2023/03/16 00:12:37;;;;;;;2.47;0.90;;;;;;;;;;5038819;28;20196;-91
2023/03/16 00:15:03;;;;;;;1.17;0.70;;;;;;;;;;5040908;28;20049;-92
2023/03/16 00:17:29;;;;;;;1.35;0.57;;;;;;;;;;5037067;28;20018;-91
2023/03/16 00:20:05;;;;;;;0.90;0.70;;;;;;;;;;5047960;28;20036;-93
2023/03/16 00:22:31;;;;;;;0.40;0.40;;;;;;;;;;5038683;28;20022;-93
2023/03/16 00:24:57;;;;;;;1.27;0.60;;;;;;;;;;5045708;28;20022;-92
2023/03/16 00:27:24;;;;;;;0.77;0.70;;;;;;;;;;5034217;28;20079;-88
2023/03/16 00:29:54;;;;;;;1.00;0.73;;;;;;;;;;5029503;28;20022;-92
2023/03/16 00:32:22;;;;;;;0.70;0.70;;;;;;;;;;5037292;28;20032;-89
2023/03/16 00:34:48;;;;;;;3.75;0.60;;;;;;;;;;5039188;28;20625;-90
2023/03/16 00:37:18;;;;;;;0.98;0.45;;;;;;;;;;5044200;28;20032;-87
2023/03/16 00:39:44;;;;;;;0.98;0.60;;;;;;;;;;5034823;28;20045;-89
2023/03/16 00:42:12;;;;;;;0.95;0.65;;;;;;;;;;5031186;28;20029;-87
2023/03/16 00:44:38;;;;;;;0.80;0.75;;;;;;;;;;5034603;28;20034;-87
2023/03/16 00:47:05;;;;;;;0.85;0.52;;;;;;;;;;5034467;28;20025;-86
2023/03/16 00:49:33;;;;;;;0.65;0.52;;;;;;;;;;5043575;28;20032;-86
2023/03/16 00:51:59;;;;;;;1.48;0.70;;;;;;;;;;5042985;28;20067;-87
2023/03/16 00:54:25;;;;;;;1.48;0.57;;;;;;;;;;5029885;28;20038;-87
2023/03/16 00:56:52;;;;;;;1.42;0.77;;;;;;;;;;5044701;28;20428;-86
2023/03/16 00:59:20;;;;;;;0.65;0.50;;;;;;;;;;5043831;28;20026;-87
2023/03/16 01:01:48;;;;;;;1.10;0.80;;;;;;;;;;5035692;28;20028;-87
2023/03/16 01:04:14;;;;;;;0.95;0.80;;;;;;;;;;5030135;28;20029;-87
2023/03/16 01:06:40;;;;;;;0.70;0.70;;;;;;;;;;5033603;28;20053;-87
2023/03/16 01:09:08;;;;;;;1.02;0.80;;;;;;;;;;5031979;28;20032;-86
2023/03/16 01:11:36;;;;;;;0.60;0.60;;;;;;;;;;5034409;28;20908;-87
2023/03/16 01:14:03;;;;;;;1.50;0.73;;;;;;;;;;5038214;28;20053;-93
2023/03/16 01:16:35;;;;;;;1.00;0.70;;;;;;;;;;5033950;28;20492;-92
2023/03/16 01:19:01;;;;;;;0.55;0.50;;;;;;;;;;5039685;28;20029;-93
2023/03/16 01:21:27;;;;;;;0.63;0.57;;;;;;;;;;5034710;28;20024;-91
2023/03/16 01:23:53;;;;;;;0.85;0.45;;;;;;;;;;5052161;28;20407;-93
2023/03/16 01:26:24;;;;;;;1.13;0.70;;;;;;;;;;5043955;28;20487;-93
2023/03/16 01:28:49;;;;;;;0.93;0.40;;;;;;;;;;5044523;28;20143;-91
2023/03/16 01:31:16;;;;;;;0.63;0.50;;;;;;;;;;5033476;28;20036;-91
2023/03/16 01:33:45;;;;;;;0.70;0.70;;;;;;;;;;5038088;28;20370;-90
2023/03/16 01:36:17;;;;;;;1.50;0.80;;;;;;;;;;5040810;28;20123;-89
2023/03/16 01:38:44;;;;;;;1.30;0.57;;;;;;;;;;5038569;28;20474;-91
2023/03/16 01:41:10;;;;;;;2.15;0.77;;;;;;;;;;5032973;28;20444;-88
2023/03/16 01:43:37;;;;;;;1.23;0.57;;;;;;;;;;5039028;28;20021;-88
2023/03/16 01:46:08;;;;;;;3.47;0.73;;;;;;;;;;5031595;28;20041;-87
2023/03/16 01:48:37;;;;;;;1.20;0.70;;;;;;;;;;5039500;28;20029;-87
2023/03/16 01:51:08;;;;;;;1.70;0.70;;;;;;;;;;5043208;28;20035;-87
2023/03/16 01:53:35;;;;;;;1.08;0.73;;;;;;;;;;5032925;28;20143;-87
2023/03/16 01:56:02;;;;;;;0.75;0.47;;;;;;;;;;5031484;28;20032;-87
2023/03/16 01:58:29;;;;;;;0.95;0.60;;;;;;;;;;5043850;28;20056;-88
2023/03/16 02:00:57;;;;;;;2.05;0.77;;;;;;;;;;5037032;28;20052;-88
2023/03/16 02:03:23;;;;;;;0.70;0.70;;;;;;;;;;5038473;28;20408;-88
2023/03/16 02:06:07;;;;;;;0.93;0.93;;;;;;;;;;5035669;28;20039;-88
2023/03/16 02:08:34;;;;;;;0.50;0.50;;;;;;;;;;5038305;28;20017;-89
2023/03/16 02:11:00;;;;;;;0.57;0.57;;;;;;;;;;5039366;28;20585;-88
2023/03/16 02:13:28;;;;;;;0.70;0.70;;;;;;;;;;5029978;28;20033;-88
2023/03/16 02:15:54;;;;;;;1.00;0.60;;;;;;;;;;5027842;28;20050;-91
2023/03/16 02:18:23;;;;;;;1.13;0.82;;;;;;;;;;5028784;28;20021;-91
2023/03/16 02:21:01;;;;;;;0.60;0.52;;;;;;;;;;5034024;28;20025;-89
2023/03/16 02:23:27;;;;;;;2.17;0.90;;;;;;;;;;5049236;28;20025;-90
2023/03/16 02:25:53;;;;;;;0.75;0.63;;;;;;;;;;5041685;28;20037;-90
2023/03/16 02:28:47;;;;;;;4.38;0.70;;;;;;;;;;5036749;28;20095;-89
2023/03/16 02:31:13;;;;;;;0.50;0.50;;;;;;;;;;5032341;28;20043;-90
2023/03/16 02:33:40;;;;;;;0.43;0.38;;;;;;;;;;5034513;28;20059;-88
2023/03/16 02:36:18;;;;;;;0.52;0.40;;;;;;;;;;5029065;28;20192;-89
2023/03/16 02:44:44;;;;;;;0.68;0.60;;;;;;;;;;4694825;26;20057;-87
2023/03/16 02:47:14;;;;;;;0.65;0.63;;;;;;;;;;5007998;28;20049;-88
2023/03/16 02:49:43;;;;;;;0.40;0.40;;;;;;;;;;5021625;28;20033;-87
2023/03/16 02:52:10;;;;;;;0.85;0.63;;;;;;;;;;5010808;28;20040;-86
2023/03/16 02:54:36;;;;;;;0.52;0.52;;;;;;;;;;5020760;28;20026;-88
2023/03/16 02:57:02;;;;;;;1.60;0.55;;;;;;;;;;5024866;28;20050;-87
2023/03/16 02:59:28;;;;;;;1.00;0.60;;;;;;;;;;5025236;28;20079;-87
2023/03/16 03:01:54;;;;;;;0.93;0.63;;;;;;;;;;5020463;28;20065;-87
2023/03/16 03:04:23;;;;;;;0.70;0.68;;;;;;;;;;5025195;28;20044;-87
2023/03/16 03:06:50;;;;;;;1.05;0.60;;;;;;;;;;5025112;28;20033;-90
2023/03/16 03:09:17;;;;;;;0.57;0.47;;;;;;;;;;5025572;28;20022;-88
2023/03/16 03:11:43;;;;;;;0.82;0.60;;;;;;;;;;5021387;28;20037;-89
2023/03/16 03:14:09;;;;;;;1.73;0.63;;;;;;;;;;5016848;28;20034;-89
2023/03/16 03:16:35;;;;;;;1.25;1.10;;;;;;;;;;5014547;28;20472;-88
2023/03/16 03:19:05;;;;;;;0.50;0.50;;;;;;;;;;5024160;28;20077;-87
2023/03/16 03:21:31;;;;;;;1.13;0.53;;;;;;;;;;5022886;28;20022;-87
2023/03/16 03:23:57;;;;;;;0.30;0.30;;;;;;;;;;5023090;28;20400;-87
2023/03/16 03:26:23;;;;;;;1.20;0.70;;;;;;;;;;5026704;28;20033;-88
2023/03/16 03:28:51;;;;;;;0.93;0.70;;;;;;;;;;5025193;28;20048;-87
2023/03/16 03:31:18;;;;;;;0.95;0.68;;;;;;;;;;5021830;28;20053;-88
2023/03/16 03:33:44;;;;;;;3.08;0.57;;;;;;;;;;5022390;28;20477;-88
2023/03/16 03:36:11;;;;;;;0.32;0.32;;;;;;;;;;5011730;28;20525;-87
2023/03/16 03:38:37;;;;;;;0.45;0.40;;;;;;;;;;5014408;28;20030;-86
2023/03/16 03:41:06;;;;;;;0.75;0.45;;;;;;;;;;5027267;28;20056;-87
2023/03/16 03:43:32;;;;;;;0.40;0.40;;;;;;;;;;5000666;28;20058;-87
2023/03/16 03:45:59;;;;;;;0.50;0.50;;;;;;;;;;5011127;28;20481;-87
2023/03/16 03:48:25;;;;;;;2.55;0.60;;;;;;;;;;5005421;28;20544;-86
2023/03/16 03:50:52;;;;;;;0.43;0.40;;;;;;;;;;5018157;28;20190;-88
2023/03/16 03:53:18;;;;;;;0.32;0.32;;;;;;;;;;5005205;28;20448;-93
2023/03/16 03:55:44;;;;;;;1.55;0.90;;;;;;;;;;5017247;28;20041;-89
2023/03/16 03:58:11;;;;;;;0.50;0.32;;;;;;;;;;5014832;28;20026;-87
2023/03/16 04:00:37;;;;;;;0.70;0.60;;;;;;;;;;5018622;28;20018;-87
2023/03/16 04:03:03;;;;;;;0.57;0.50;;;;;;;;;;5006990;28;20033;-88
2023/03/16 04:05:30;;;;;;;0.68;0.50;;;;;;;;;;5014627;28;20026;-87
2023/03/16 04:07:56;;;;;;;0.95;0.50;;;;;;;;;;5007483;28;20572;-87
2023/03/16 04:10:24;;;;;;;0.85;0.80;;;;;;;;;;5010070;28;20026;-87
2023/03/16 04:12:49;;;;;;;0.82;0.77;;;;;;;;;;5008217;28;20025;-87
2023/03/16 04:15:16;;;;;;;0.95;0.52;;;;;;;;;;5006565;28;20744;-88
2023/03/16 04:17:41;;;;;;;0.45;0.45;;;;;;;;;;5009147;28;20033;-88
2023/03/16 04:20:13;;;;;;;1.55;0.93;;;;;;;;;;5008650;28;20046;-88
2023/03/16 04:22:39;;;;;;;0.73;0.68;;;;;;;;;;5002510;28;20071;-87
2023/03/16 04:25:05;;;;;;;1.08;0.70;;;;;;;;;;5007358;28;20025;-87
2023/03/16 04:27:35;;;;;;;0.68;0.47;;;;;;;;;;5003776;28;20040;-88
2023/03/16 04:30:04;;;;;;;0.68;0.45;;;;;;;;;;5014641;28;20061;-88
2023/03/16 04:32:30;;;;;;;1.02;0.50;;;;;;;;;;5010200;28;20034;-87
2023/03/16 04:34:56;;;;;;;2.95;0.43;;;;;;;;;;5010725;28;20026;-94
2023/03/16 04:37:22;;;;;;;0.95;0.60;;;;;;;;;;5008227;28;20033;-89
2023/03/16 04:39:48;;;;;;;0.95;0.40;;;;;;;;;;5002842;28;20018;-89
2023/03/16 04:42:17;;;;;;;1.75;0.60;;;;;;;;;;5006649;28;20739;-91
2023/03/16 04:44:43;;;;;;;0.40;0.40;;;;;;;;;;5011357;28;20477;-91
2023/03/16 04:47:13;;;;;;;0.82;0.50;;;;;;;;;;4999935;28;20037;-92
2023/03/16 04:49:39;;;;;;;1.40;0.63;;;;;;;;;;4998760;28;20061;-94
2023/03/16 04:52:06;;;;;;;0.57;0.50;;;;;;;;;;5013418;28;20030;-88
2023/03/16 04:54:32;;;;;;;1.65;0.52;;;;;;;;;;5005523;28;20041;-88
2023/03/16 04:56:59;;;;;;;0.60;0.50;;;;;;;;;;5012420;28;20022;-87
2023/03/16 04:59:25;;;;;;;0.98;0.52;;;;;;;;;;5017842;28;20029;-86
2023/03/16 05:01:51;;;;;;;3.83;0.63;;;;;;;;;;5004837;28;20494;-86
2023/03/16 05:04:17;;;;;;;1.05;0.60;;;;;;;;;;5004651;28;20064;-86
2023/03/16 05:06:43;;;;;;;0.35;0.35;;;;;;;;;;5005859;28;20098;-86
2023/03/16 05:09:09;;;;;;;0.52;0.50;;;;;;;;;;5014348;28;20571;-86
2023/03/16 05:11:35;;;;;;;0.70;0.40;;;;;;;;;;4995061;28;20441;-85
2023/03/16 05:14:01;;;;;;;0.82;0.50;;;;;;;;;;4999780;28;20029;-90
2023/03/16 05:16:28;;;;;;;0.30;0.30;;;;;;;;;;5001190;28;20038;-90
2023/03/16 05:18:57;;;;;;;0.30;0.30;;;;;;;;;;4998834;28;20030;-88
2023/03/16 05:21:23;;;;;;;1.10;0.68;;;;;;;;;;4999770;28;20551;-88
2023/03/16 05:23:49;;;;;;;2.22;0.55;;;;;;;;;;4999092;28;20033;-87
2023/03/16 05:26:15;;;;;;;1.20;0.68;;;;;;;;;;5003496;28;20040;-90
2023/03/16 05:28:41;;;;;;;0.40;0.40;;;;;;;;;;5000670;28;20031;-89
2023/03/16 05:31:07;;;;;;;2.75;1.20;;;;;;;;;;4997839;28;20072;-88
2023/03/16 05:33:33;;;;;;;1.20;0.45;;;;;;;;;;5003975;28;20022;-92
2023/03/16 05:36:01;;;;;;;1.42;0.70;;;;;;;;;;4995546;28;20037;-85
2023/03/16 05:38:27;;;;;;;0.43;0.43;;;;;;;;;;5003182;28;20358;-89
2023/03/16 05:40:53;;;;;;;0.70;0.40;;;;;;;;;;5000418;28;20083;-90
2023/03/16 05:43:20;;;;;;;0.68;0.45;;;;;;;;;;4992600;28;20140;-82
2023/03/16 05:45:46;;;;;;;0.40;0.40;;;;;;;;;;5000228;28;20072;-80
2023/03/16 05:48:13;;;;;;;1.05;0.68;;;;;;;;;;4999101;28;20058;-81
2023/03/16 05:50:40;;;;;;;1.20;1.05;;;;;;;;;;4999953;28;20053;-85
2023/03/16 05:53:06;;;;;;;2.40;0.82;;;;;;;;;;4998898;28;20034;-85
2023/03/16 05:55:32;;;;;;;0.55;0.55;;;;;;;;;;5002380;28;20388;-84
2023/03/16 05:57:58;;;;;;;1.65;0.55;;;;;;;;;;4995921;28;20685;-83
2023/03/16 06:00:24;;;;;;;0.50;0.47;;;;;;;;;;5004781;28;20110;-83
2023/03/16 06:02:51;;;;;;;1.08;0.80;;;;;;;;;;4993857;28;20038;-82
2023/03/16 06:05:18;;;;;;;0.60;0.60;;;;;;;;;;4996487;28;20022;-84
2023/03/16 06:07:47;;;;;;;0.80;0.80;;;;;;;;;;4997861;28;20113;-83
2023/03/16 06:10:13;;;;;;;0.85;0.50;;;;;;;;;;5001235;28;20036;-83
2023/03/16 06:12:40;;;;;;;0.32;0.32;;;;;;;;;;5004062;28;20022;-85
2023/03/16 06:15:06;;;;;;;1.30;0.63;;;;;;;;;;5011972;28;20384;-83
2023/03/16 06:17:33;;;;;;;0.85;0.55;;;;;;;;;;5027080;28;20022;-84
2023/03/16 06:19:59;;;;;;;0.77;0.57;;;;;;;;;;5012643;28;20165;-84
2023/03/16 06:22:25;;;;;;;1.13;0.50;;;;;;;;;;5001218;28;20476;-83
2023/03/16 06:24:51;;;;;;;2.80;0.90;;;;;;;;;;5004425;28;20477;-83
2023/03/16 06:27:19;;;;;;;1.20;0.60;;;;;;;;;;5012410;28;20025;-84
2023/03/16 06:29:45;;;;;;;1.98;1.10;;;;;;;;;;5022459;28;20037;-84
2023/03/16 06:32:11;;;;;;;1.35;0.85;;;;;;;;;;5013926;28;20034;-83
2023/03/16 06:34:37;;;;;;;0.40;0.40;;;;;;;;;;4987778;28;20088;-83
2023/03/16 06:37:03;;;;;;;0.80;0.52;;;;;;;;;;5012511;28;20030;-87
2023/03/16 06:39:29;;;;;;;1.42;1.00;;;;;;;;;;5005602;28;20044;-87
2023/03/16 06:41:58;;;;;;;0.70;0.57;;;;;;;;;;4997879;28;20172;-87
2023/03/16 06:44:24;;;;;;;0.63;0.50;;;;;;;;;;5009793;28;20322;-74
2023/03/16 06:46:50;;;;;;;1.05;0.50;;;;;;;;;;5000459;28;20029;-86
2023/03/16 06:49:16;;;;;;;1.20;0.73;;;;;;;;;;5012325;28;20044;-79
2023/03/16 06:51:42;;;;;;;0.50;0.50;;;;;;;;;;4998077;28;20018;-75
2023/03/16 06:54:08;;;;;;;0.60;0.57;;;;;;;;;;5001850;28;20524;-76
2023/03/16 06:56:34;;;;;;;1.42;0.77;;;;;;;;;;5000381;28;20728;-76
2023/03/16 06:59:00;;;;;;;0.50;0.40;;;;;;;;;;5006063;28;20013;-83
2023/03/16 07:01:26;;;;;;;1.15;0.50;;;;;;;;;;4997648;28;20593;-84
2023/03/16 07:03:53;;;;;;;0.50;0.50;;;;;;;;;;5003217;28;20125;-83
2023/03/16 07:06:19;;;;;;;1.65;0.60;;;;;;;;;;5007593;28;20069;-83
2023/03/16 07:08:45;;;;;;;1.27;0.60;;;;;;;;;;5026650;28;20057;-82
2023/03/16 07:11:11;;;;;;;0.60;0.50;;;;;;;;;;5005266;28;20131;-85
2023/03/16 07:13:37;;;;;;;2.40;0.75;;;;;;;;;;5011710;28;20040;-83
2023/03/16 07:16:03;;;;;;;1.35;0.65;;;;;;;;;;5023934;28;20480;-83
2023/03/16 07:18:30;;;;;;;2.60;1.00;;;;;;;;;;5018625;28;20028;-78
2023/03/16 07:20:57;;;;;;;0.60;0.60;;;;;;;;;;5008804;28;20029;-83
2023/03/16 07:23:23;;;;;;;0.60;0.55;;;;;;;;;;4997619;28;20101;-82
2023/03/16 07:25:50;;;;;;;0.95;0.60;;;;;;;;;;5009694;28;20177;-82
2023/03/16 07:28:17;;;;;;;0.77;0.57;;;;;;;;;;5006604;28;20605;-86
2023/03/16 07:30:44;;;;;;;1.67;0.80;;;;;;;;;;5025156;28;20022;-81
2023/03/16 07:33:10;;;;;;;0.55;0.55;;;;;;;;;;5010225;28;20041;-83
2023/03/16 07:35:36;;;;;;;2.13;0.55;;;;;;;;;;5011266;28;20026;-81
2023/03/16 07:38:02;;;;;;;2.55;0.90;;;;;;;;;;5007532;28;20084;-80
2023/03/16 07:40:28;;;;;;;1.00;0.60;;;;;;;;;;5011151;28;20640;-85
2023/03/16 07:42:54;;;;;;;1.17;0.50;;;;;;;;;;5005177;28;20046;-81
2023/03/16 07:45:20;;;;;;;2.47;0.43;;;;;;;;;;5005757;28;20026;-80
2023/03/16 07:47:46;;;;;;;1.10;0.75;;;;;;;;;;5009306;28;20799;-80
2023/03/16 07:50:15;;;;;;;3.45;0.82;;;;;;;;;;5015716;28;20041;-80
2023/03/16 07:52:41;;;;;;;1.17;0.50;;;;;;;;;;5006403;28;20025;-85
2023/03/16 07:55:07;;;;;;;2.33;1.10;;;;;;;;;;4994445;28;20061;-84
2023/03/16 07:57:34;;;;;;;2.53;0.40;;;;;;;;;;5007403;28;20034;-84
2023/03/16 08:00:03;;;;;;;1.10;0.65;;;;;;;;;;4991073;28;20036;-84
2023/03/16 08:02:30;;;;;;;0.93;0.70;;;;;;;;;;5000392;28;20033;-87
2023/03/16 08:04:56;;;;;;;5.30;1.17;;;;;;;;;;4998275;28;20128;-81
2023/03/16 08:07:22;;;;;;;0.73;0.50;;;;;;;;;;4998289;28;20528;-83
2023/03/16 08:09:48;;;;;;;1.55;1.15;;;;;;;;;;5008601;28;20030;-80
2023/03/16 08:12:14;;;;;;;1.95;0.63;;;;;;;;;;5006638;28;20034;-83
2023/03/16 08:14:40;;;;;;;1.85;0.65;;;;;;;;;;5009378;28;20508;-86
2023/03/16 08:17:06;;;;;;;1.10;0.60;;;;;;;;;;4997667;28;20021;-85
2023/03/16 08:19:33;;;;;;;2.83;1.02;;;;;;;;;;5024114;28;20476;-86
2023/03/16 08:22:02;;;;;;;0.85;0.80;;;;;;;;;;5027595;28;20013;-86
2023/03/16 08:24:29;;;;;;;1.80;0.77;;;;;;;;;;5009858;28;20030;-84
2023/03/16 08:26:59;;;;;;;0.40;0.40;;;;;;;;;;5003707;28;20050;-84
2023/03/16 08:29:25;;;;;;;2.22;0.70;;;;;;;;;;5009346;28;20053;-84
2023/03/16 08:31:55;;;;;;;1.83;0.93;;;;;;;;;;5001032;28;20037;-83
2023/03/16 08:34:21;;;;;;;2.55;0.73;;;;;;;;;;5009391;28;20083;-84
2023/03/16 08:36:47;;;;;;;0.90;0.60;;;;;;;;;;5011144;28;20029;-83
2023/03/16 08:39:14;;;;;;;0.68;0.50;;;;;;;;;;5013511;28;20017;-83
2023/03/16 08:41:41;;;;;;;1.27;0.47;;;;;;;;;;5022483;28;20125;-80
2023/03/16 08:44:07;;;;;;;3.33;0.77;;;;;;;;;;5005369;28;20501;-73
2023/03/16 08:46:36;;;;;;;1.00;0.57;;;;;;;;;;5021109;28;20044;-73
2023/03/16 08:49:02;;;;;;;1.60;0.73;;;;;;;;;;5005670;28;20108;-73
2023/03/16 08:51:31;;;;;;;3.70;0.90;;;;;;;;;;5016051;28;20679;-73
2023/03/16 08:53:58;;;;;;;1.55;0.80;;;;;;;;;;5017540;28;20037;-74
2023/03/16 08:56:24;;;;;;;0.30;0.30;;;;;;;;;;5022226;28;20040;-73
2023/03/16 08:58:51;;;;;;;0.90;0.70;;;;;;;;;;5012693;28;20134;-73
2023/03/16 09:01:18;;;;;;;0.90;0.40;;;;;;;;;;5006792;28;20026;-73
2023/03/16 09:03:47;;;;;;;0.52;0.50;;;;;;;;;;5003817;28;20022;-73
2023/03/16 09:06:18;;;;;;;0.43;0.38;;;;;;;;;;5002397;28;20033;-73
2023/03/16 09:08:44;;;;;;;0.68;0.50;;;;;;;;;;5003025;28;20076;-74
2023/03/16 09:11:13;;;;;;;0.40;0.40;;;;;;;;;;5007191;28;20032;-73
2023/03/16 09:13:39;;;;;;;1.38;0.73;;;;;;;;;;5005257;28;20080;-73
2023/03/16 09:16:06;;;;;;;2.65;0.68;;;;;;;;;;5008111;28;20392;-73
2023/03/16 09:18:34;;;;;;;1.17;0.50;;;;;;;;;;5007291;28;20022;-74
2023/03/16 09:21:01;;;;;;;0.30;0.30;;;;;;;;;;5004763;28;20033;-74
2023/03/16 09:23:28;;;;;;;1.00;0.55;;;;;;;;;;5006733;28;20026;-75
2023/03/16 09:25:56;;;;;;;3.40;0.50;;;;;;;;;;5006318;28;20054;-74
2023/03/16 09:28:22;;;;;;;0.40;0.40;;;;;;;;;;5005850;28;20060;-73
2023/03/16 09:30:49;;;;;;;0.30;0.30;;;;;;;;;;5002755;28;20025;-73
2023/03/16 09:33:15;;;;;;;0.63;0.40;;;;;;;;;;5004950;28;20672;-72
2023/03/16 09:35:42;;;;;;;0.40;0.40;;;;;;;;;;5005589;28;20045;-73
2023/03/16 09:38:08;;;;;;;0.50;0.40;;;;;;;;;;5004269;28;20469;-73
2023/03/16 09:40:35;;;;;;;0.45;0.45;;;;;;;;;;5012724;28;20052;-74
2023/03/16 09:43:16;;;;;;;1.40;0.50;;;;;;;;;;5013450;28;20053;-73
2023/03/16 09:45:56;;;;;;;0.90;0.52;;;;;;;;;;5008139;28;20022;-73
2023/03/16 09:48:24;;;;;;;0.93;0.50;;;;;;;;;;5012834;28;20477;-74
2023/03/16 09:50:51;;;;;;;0.40;0.40;;;;;;;;;;5007762;28;20044;-73
2023/03/16 09:53:28;;;;;;;0.45;0.43;;;;;;;;;;5005470;28;20022;-73
2023/03/16 09:56:03;;;;;;;0.32;0.32;;;;;;;;;;5014994;28;20488;-74
2023/03/16 09:58:31;;;;;;;0.85;0.60;;;;;;;;;;5022839;28;20499;-74
2023/03/16 10:01:17;;;;;;;1.52;0.50;;;;;;;;;;5006383;28;20029;-73
2023/03/16 10:04:08;;;;;;;4.97;0.63;;;;;;;;;;4994169;28;20033;-73
2023/03/16 10:06:37;;;;;;;0.50;0.40;;;;;;;;;;5008810;28;20048;-73
2023/03/16 10:09:11;;;;;;;0.28;0.28;;;;;;;;;;5018082;28;20029;-74
2023/03/16 10:12:03;;;;;;;0.30;0.30;;;;;;;;;;5011019;28;20527;-73
2023/03/16 10:14:29;;;;;;;1.50;0.40;;;;;;;;;;4997745;28;20405;-73
2023/03/16 10:16:55;;;;;;;0.43;0.30;;;;;;;;;;5007496;28;20044;-73
2023/03/16 10:19:28;;;;;;;0.63;0.52;;;;;;;;;;5018408;28;20033;-73
2023/03/16 10:21:56;;;;;;;0.28;0.28;;;;;;;;;;5019313;28;20384;-74
2023/03/16 10:24:33;;;;;;;1.27;0.30;;;;;;;;;;5003183;28;20101;-73
2023/03/16 10:26:59;;;;;;;0.30;0.30;;;;;;;;;;5006409;28;20037;-75
2023/03/16 10:29:26;;;;;;;0.55;0.30;;;;;;;;;;5009077;28;20407;-73
2023/03/16 10:31:54;;;;;;;0.35;0.30;;;;;;;;;;5008807;28;20034;-74
2023/03/16 10:34:22;;;;;;;0.75;0.38;;;;;;;;;;5005056;28;20484;-73
2023/03/16 10:36:48;;;;;;;0.20;0.20;;;;;;;;;;5011854;28;20053;-73
2023/03/16 10:39:16;;;;;;;0.82;0.77;;;;;;;;;;5015420;28;20085;-74
2023/03/16 10:41:44;;;;;;;0.35;0.35;;;;;;;;;;5007477;28;20030;-74
2023/03/16 10:44:12;;;;;;;0.20;0.20;;;;;;;;;;4999670;28;20042;-74
2023/03/16 10:46:47;;;;;;;0.30;0.30;;;;;;;;;;5003031;28;20041;-73
2023/03/16 10:49:24;;;;;;;0.65;0.55;;;;;;;;;;5025520;28;20029;-74
2023/03/16 10:51:51;;;;;;;0.57;0.25;;;;;;;;;;5009861;28;20026;-73
2023/03/16 10:54:23;;;;;;;1.27;0.50;;;;;;;;;;5009625;28;20053;-74
2023/03/16 10:56:49;;;;;;;0.20;0.20;;;;;;;;;;5008863;28;20125;-74
2023/03/16 10:59:30;;;;;;;0.35;0.30;;;;;;;;;;5009943;28;20424;-74
2023/03/16 11:01:57;;;;;;;0.75;0.50;;;;;;;;;;5009988;28;20025;-74
2023/03/16 11:04:23;;;;;;;0.85;0.30;;;;;;;;;;5005638;28;20723;-74
2023/03/16 11:06:53;;;;;;;0.45;0.40;;;;;;;;;;5014819;28;20476;-73
2023/03/16 11:09:22;;;;;;;0.35;0.20;;;;;;;;;;5030381;28;20030;-74
2023/03/16 11:11:52;;;;;;;0.68;0.50;;;;;;;;;;5030663;28;20123;-74
2023/03/16 11:14:20;;;;;;;1.60;0.30;;;;;;;;;;5012838;28;20068;-73
2023/03/16 11:16:49;;;;;;;0.40;0.40;;;;;;;;;;5007038;28;20696;-73
2023/03/16 11:19:24;;;;;;;1.05;0.60;;;;;;;;;;5007573;28;20385;-73
2023/03/16 11:22:00;;;;;;;0.55;0.55;;;;;;;;;;5005376;28;20113;-74
2023/03/16 11:24:33;;;;;;;0.20;0.20;;;;;;;;;;5010092;28;20032;-74
2023/03/16 11:27:00;;;;;;;0.35;0.35;;;;;;;;;;5004573;28;20400;-74
2023/03/16 11:29:51;;;;;;;0.43;0.43;;;;;;;;;;5007381;28;20029;-74
2023/03/16 11:32:19;;;;;;;0.45;0.38;;;;;;;;;;5009973;28;20033;-74
2023/03/16 11:34:47;;;;;;;0.30;0.30;;;;;;;;;;5010490;28;20022;-74
2023/03/16 11:37:24;;;;;;;1.27;0.30;;;;;;;;;;5007620;28;20033;-73
2023/03/16 11:40:14;;;;;;;0.63;0.40;;;;;;;;;;5008516;28;20140;-74
2023/03/16 11:42:50;;;;;;;0.43;0.30;;;;;;;;;;5008038;28;20057;-74
2023/03/16 11:45:27;;;;;;;0.52;0.20;;;;;;;;;;5004207;28;20614;-73
2023/03/16 11:48:04;;;;;;;0.30;0.30;;;;;;;;;;5009237;28;20030;-74
2023/03/16 11:50:36;;;;;;;0.60;0.40;;;;;;;;;;5008910;28;20485;-73
2023/03/16 11:53:11;;;;;;;1.08;0.30;;;;;;;;;;5008947;28;20030;-75
2023/03/16 11:55:37;;;;;;;1.15;0.43;;;;;;;;;;5029179;28;20029;-75
2023/03/16 11:58:10;;;;;;;3.67;0.50;;;;;;;;;;5019720;28;20033;-74
2023/03/16 12:00:44;;;;;;;0.40;0.40;;;;;;;;;;4995655;28;20034;-74
2023/03/16 12:03:29;;;;;;;2.17;0.65;;;;;;;;;;5010139;28;20033;-75
2023/03/16 12:05:59;;;;;;;0.40;0.30;;;;;;;;;;5029436;28;20033;-74
2023/03/16 12:08:29;;;;;;;0.38;0.30;;;;;;;;;;5029163;28;20022;-74
2023/03/16 12:11:14;;;;;;;0.30;0.30;;;;;;;;;;5010506;28;20530;-74
2023/03/16 12:14:03;;;;;;;0.82;0.60;;;;;;;;;;5008609;28;20535;-74
2023/03/16 12:16:34;;;;;;;0.55;0.38;;;;;;;;;;5009491;28;20036;-74
2023/03/16 12:19:00;;;;;;;;;;;;;;;;;;5007660;28;20469;-73
2023/03/16 12:21:31;;;;;;;0.85;0.60;;;;;;;;;;5008385;28;20003;-73
2023/03/16 12:23:59;;;;;;;0.55;0.40;;;;;;;;;;5009306;28;20018;-73
2023/03/16 12:26:29;;;;;;;0.40;0.40;;;;;;;;;;5008218;28;20061;-73
2023/03/16 12:28:59;;;;;;;0.68;0.63;;;;;;;;;;5008474;28;20040;-73
2023/03/16 12:31:37;;;;;;;0.43;0.32;;;;;;;;;;5009689;28;20542;-72
2023/03/16 12:34:23;;;;;;;2.13;0.28;;;;;;;;;;5019929;28;20117;-73
2023/03/16 12:37:08;;;;;;;0.30;0.30;;;;;;;;;;5000550;28;20026;-73
2023/03/16 12:39:38;;;;;;;0.22;0.20;;;;;;;;;;5006412;28;20030;-73
2023/03/16 12:42:10;;;;;;;0.30;0.30;;;;;;;;;;5005338;28;20037;-73
2023/03/16 12:44:44;;;;;;;0.88;0.43;;;;;;;;;;5009016;28;20050;-73
2023/03/16 12:47:23;;;;;;;0.40;0.40;;;;;;;;;;5007640;28;20384;-73
2023/03/16 12:49:50;;;;;;;1.00;0.85;;;;;;;;;;5008065;28;20404;-73
2023/03/16 12:52:17;;;;;;;0.52;0.32;;;;;;;;;;5014989;28;20037;-74
2023/03/16 12:54:54;;;;;;;0.40;0.40;;;;;;;;;;5022601;28;20030;-74
2023/03/16 12:57:23;;;;;;;0.50;0.50;;;;;;;;;;5014441;28;20030;-74
2023/03/16 12:59:54;;;;;;;1.42;0.52;;;;;;;;;;5011882;28;20034;-74
2023/03/16 13:02:25;;;;;;;0.32;0.30;;;;;;;;;;5006060;28;20025;-73
2023/03/16 13:04:57;;;;;;;0.60;0.35;;;;;;;;;;5007114;28;20022;-73
2023/03/16 13:07:24;;;;;;;0.32;0.32;;;;;;;;;;5005959;28;20033;-73
2023/03/16 13:09:52;;;;;;;0.82;0.28;;;;;;;;;;5009884;28;20026;-74
2023/03/16 13:12:25;;;;;;;0.28;0.25;;;;;;;;;;5016821;28;20029;-73
2023/03/16 13:14:53;;;;;;;0.80;0.60;;;;;;;;;;5012920;28;20009;-73
2023/03/16 13:17:19;;;;;;;0.77;0.63;;;;;;;;;;5006475;28;20034;-73
2023/03/16 13:19:57;;;;;;;0.65;0.40;;;;;;;;;;5013532;28;20030;-74
2023/03/16 13:22:28;;;;;;;0.52;0.43;;;;;;;;;;5023876;28;20039;-73
2023/03/16 13:24:59;;;;;;;0.32;0.32;;;;;;;;;;5002127;28;20026;-74
2023/03/16 13:27:29;;;;;;;0.77;0.30;;;;;;;;;;5007970;28;20052;-74
2023/03/16 13:29:57;;;;;;;1.80;0.50;;;;;;;;;;5007871;28;20025;-74
2023/03/16 13:32:27;;;;;;;0.50;0.50;;;;;;;;;;5008006;28;20038;-75
2023/03/16 13:34:56;;;;;;;0.68;0.57;;;;;;;;;;5007026;28;20038;-75
2023/03/16 13:37:23;;;;;;;0.25;0.22;;;;;;;;;;5007566;28;20084;-75
2023/03/16 13:39:54;;;;;;;0.40;0.40;;;;;;;;;;5008382;28;20026;-74
2023/03/16 13:42:21;;;;;;;0.82;0.35;;;;;;;;;;5006426;28;20041;-74
2023/03/16 13:44:47;;;;;;;1.23;0.30;;;;;;;;;;5012204;28;20025;-75
2023/03/16 13:47:14;;;;;;;1.23;0.30;;;;;;;;;;5006667;28;20038;-75
2023/03/16 13:49:45;;;;;;;1.90;0.40;;;;;;;;;;5018443;28;20075;-74
2023/03/16 13:52:20;;;;;;;0.40;0.30;;;;;;;;;;5023450;28;20040;-75
2023/03/16 13:54:46;;;;;;;0.20;0.20;;;;;;;;;;5020367;28;20488;-75
2023/03/16 13:57:13;;;;;;;0.40;0.40;;;;;;;;;;5015163;28;20183;-75
2023/03/16 13:59:45;;;;;;;0.32;0.30;;;;;;;;;;5013523;28;20026;-74
2023/03/16 14:02:49;;;;;;;0.20;0.10;;;;;;;;;;5013523;28;20017;-75
2023/03/16 14:05:20;;;;;;;0.40;0.25;;;;;;;;;;4964588;28;20037;-75
2023/03/16 14:07:47;;;;;;;0.70;0.43;;;;;;;;;;5005981;28;20548;-74
2023/03/16 14:10:17;;;;;;;0.40;0.40;;;;;;;;;;4985991;28;20018;-75
2023/03/16 14:13:04;;;;;;;0.30;0.30;;;;;;;;;;5008054;28;20025;-75
2023/03/16 14:15:30;;;;;;;0.20;0.20;;;;;;;;;;4986961;28;20038;-74
2023/03/16 14:18:08;;;;;;;1.10;0.43;;;;;;;;;;5007258;28;20049;-74
2023/03/16 14:20:34;;;;;;;0.55;0.20;;;;;;;;;;5015449;28;20041;-73
2023/03/16 14:23:00;;;;;;;0.30;0.30;;;;;;;;;;4983300;28;20068;-74
2023/03/16 14:25:27;;;;;;;0.30;0.30;;;;;;;;;;5007079;28;20457;-75
2023/03/16 14:27:58;;;;;;;0.60;0.47;;;;;;;;;;5005174;28;20095;-75
2023/03/16 14:30:26;;;;;;;0.30;0.30;;;;;;;;;;5000585;28;20568;-75
2023/03/16 14:32:57;;;;;;;0.38;0.35;;;;;;;;;;5019109;28;20029;-74
2023/03/16 14:35:26;;;;;;;0.38;0.38;;;;;;;;;;5009329;28;20041;-74
2023/03/16 14:37:55;;;;;;;0.32;0.30;;;;;;;;;;5013011;28;20554;-74
2023/03/16 14:40:24;;;;;;;0.43;0.40;;;;;;;;;;5018014;28;20070;-74
2023/03/16 14:42:50;;;;;;;0.38;0.38;;;;;;;;;;5005384;28;20132;-74
2023/03/16 14:45:16;;;;;;;0.13;0.13;;;;;;;;;;5013388;28;20048;-74
2023/03/16 14:47:44;;;;;;;0.50;0.40;;;;;;;;;;5005760;28;20092;-74
2023/03/16 14:50:15;;;;;;;0.68;0.35;;;;;;;;;;5020495;28;20032;-74
2023/03/16 14:52:42;;;;;;;0.30;0.30;;;;;;;;;;5009705;28;20481;-74
2023/03/16 14:55:13;;;;;;;0.25;0.25;;;;;;;;;;5006673;28;20044;-74
2023/03/16 14:57:40;;;;;;;0.30;0.30;;;;;;;;;;5004613;28;20389;-74